createdAt,value
2022-11-05T00:01:17.785Z,9.90
2022-11-05T00:04:04.618Z,10.37
2022-11-05T00:06:51.580Z,10.23
2022-11-05T00:09:31.040Z,10.57
2022-11-05T00:12:20.367Z,9.53
2022-11-05T00:15:07.088Z,9.67
2022-11-05T00:17:36.296Z,9.90
2022-11-05T00:20:06.683Z,10.20
2022-11-05T00:22:53.466Z,10.27
2022-11-05T00:25:24.235Z,10.43
2022-11-05T00:27:54.190Z,10.00
2022-11-05T00:30:25.816Z,9.03
2022-11-05T00:32:55.013Z,10.00
2022-11-05T00:35:24.071Z,9.63
2022-11-05T00:37:54.732Z,10.00
2022-11-05T00:40:25.232Z,10.37
2022-11-05T00:43:12.038Z,9.77
2022-11-05T00:45:42.452Z,9.63
2022-11-05T00:48:29.020Z,9.97
2022-11-05T00:50:58.065Z,10.00
2022-11-05T00:53:27.004Z,9.73
2022-11-05T00:55:57.329Z,10.53
2022-11-05T00:58:27.165Z,10.13
2022-11-05T01:00:57.639Z,10.63
2022-11-05T01:03:28.859Z,10.40
2022-11-05T01:06:00.084Z,10.40
2022-11-05T01:08:29.493Z,10.63
2022-11-05T01:11:00.819Z,10.57
2022-11-05T01:13:31.286Z,10.60
2022-11-05T01:16:06.910Z,10.83
2022-11-05T01:18:38.084Z,10.30
2022-11-05T01:21:14.511Z,10.90
2022-11-05T01:23:43.763Z,10.80
2022-11-05T01:26:14.116Z,10.43
2022-11-05T01:28:43.151Z,10.17
2022-11-05T01:31:12.169Z,11.23
2022-11-05T01:33:41.109Z,10.70
2022-11-05T01:36:10.589Z,10.73
2022-11-05T01:38:39.618Z,10.93
2022-11-05T01:41:09.015Z,10.40
2022-11-05T01:43:49.585Z,10.27
2022-11-05T01:46:22.138Z,10.67
2022-11-05T01:48:58.605Z,10.30
2022-11-05T01:51:31.544Z,10.50
2022-11-05T01:54:04.107Z,10.57
2022-11-05T01:56:36.560Z,10.03
2022-11-05T01:59:10.594Z,10.03
2022-11-05T02:01:39.899Z,10.00
2022-11-05T02:04:12.758Z,9.70
2022-11-05T02:06:45.955Z,10.00
2022-11-05T02:09:21.009Z,10.20
2022-11-05T02:11:52.050Z,10.13
2022-11-05T02:14:22.858Z,10.20
2022-11-05T02:16:56.183Z,10.50
2022-11-05T02:19:54.273Z,10.07
2022-11-05T02:22:45.105Z,9.43
2022-11-05T02:25:31.301Z,10.13
2022-11-05T02:28:19.428Z,9.80
2022-11-05T02:30:53.134Z,10.03
2022-11-05T02:33:39.712Z,9.87
2022-11-05T02:36:30.600Z,10.33
2022-11-05T02:39:09.474Z,9.53
2022-11-05T02:41:48.330Z,9.97
2022-11-05T02:44:27.646Z,9.47
2022-11-05T02:47:03.628Z,9.10
2022-11-05T02:49:41.455Z,9.10
2022-11-05T02:52:17.454Z,8.83
2022-11-05T02:54:50.948Z,8.77
2022-11-05T02:57:21.949Z,8.87
2022-11-05T02:59:50.693Z,8.83
2022-11-05T03:02:21.386Z,8.87
2022-11-05T03:04:50.316Z,8.07
2022-11-05T03:07:44.459Z,8.60
2022-11-05T03:10:28.473Z,8.80
2022-11-05T03:13:09.379Z,8.43
2022-11-05T03:15:57.575Z,8.50
2022-11-05T03:18:34.546Z,9.13
2022-11-05T03:21:09.979Z,8.37
2022-11-05T03:23:45.004Z,8.53
2022-11-05T03:26:17.693Z,8.90
2022-11-05T03:28:49.813Z,8.60
2022-11-05T03:31:20.536Z,8.63
2022-11-05T03:33:52.798Z,9.50
2022-11-05T03:36:28.010Z,9.60
2022-11-05T03:39:00.141Z,9.17
2022-11-05T03:41:30.465Z,9.77
2022-11-05T03:44:05.101Z,9.27
2022-11-05T03:46:37.761Z,9.23
2022-11-05T03:49:13.065Z,8.93
2022-11-05T03:51:47.331Z,9.60
2022-11-05T03:54:16.870Z,9.10
2022-11-05T03:56:54.611Z,9.00
2022-11-05T03:59:23.974Z,9.70
2022-11-05T04:01:53.005Z,9.83
2022-11-05T04:04:23.124Z,8.83
2022-11-05T04:07:09.283Z,9.40
2022-11-05T04:09:55.723Z,9.13
2022-11-05T04:12:42.720Z,9.07
2022-11-05T04:15:11.801Z,8.97
2022-11-05T04:17:40.009Z,9.50
2022-11-05T04:20:28.661Z,8.40
2022-11-05T04:23:19.300Z,8.73
2022-11-05T04:25:48.549Z,9.00
2022-11-05T04:28:17.820Z,9.17
2022-11-05T04:30:45.901Z,9.60
2022-11-05T04:33:16.536Z,8.83
2022-11-05T04:35:48.468Z,8.77
2022-11-05T04:38:20.142Z,9.20
2022-11-05T04:40:49.619Z,8.93
2022-11-05T04:43:20.299Z,8.07
2022-11-05T04:45:49.231Z,8.43
2022-11-05T04:48:18.085Z,8.90
2022-11-05T04:50:48.259Z,8.10
2022-11-05T04:53:16.943Z,8.37
2022-11-05T04:55:45.707Z,9.27
2022-11-05T04:58:14.633Z,9.23
2022-11-05T05:00:44.087Z,8.57
2022-11-05T05:03:13.558Z,8.87
2022-11-05T05:05:42.846Z,9.53
2022-11-05T05:08:13.109Z,8.27
2022-11-05T05:10:42.291Z,8.83
2022-11-05T05:13:12.837Z,9.13
2022-11-05T05:15:42.305Z,8.40
2022-11-05T05:18:11.233Z,9.23
2022-11-05T05:20:57.688Z,9.70
2022-11-05T05:23:28.024Z,9.40
2022-11-05T05:25:59.693Z,10.10
2022-11-05T05:28:29.261Z,10.50
2022-11-05T05:31:00.321Z,10.60
2022-11-05T05:33:29.420Z,10.80
2022-11-05T05:35:58.897Z,10.23
2022-11-05T05:38:29.721Z,10.53
2022-11-05T05:41:00.299Z,11.07
2022-11-05T05:43:31.166Z,11.33
2022-11-05T05:46:03.068Z,11.07
2022-11-05T05:48:32.410Z,11.13
2022-11-05T05:51:02.721Z,11.07
2022-11-05T05:53:33.690Z,11.23
2022-11-05T05:56:03.363Z,10.87
2022-11-05T05:58:34.480Z,10.23
2022-11-05T06:01:03.948Z,10.63
2022-11-05T06:03:33.048Z,10.33
2022-11-05T06:06:03.399Z,10.13
2022-11-05T06:08:34.551Z,9.63
2022-11-05T06:11:04.922Z,10.47
2022-11-05T06:13:34.821Z,10.60
2022-11-05T06:16:05.762Z,11.10
2022-11-05T06:18:35.551Z,10.77
2022-11-05T06:21:04.783Z,11.37
2022-11-05T06:23:36.302Z,11.07
2022-11-05T06:26:07.865Z,10.80
2022-11-05T06:28:37.156Z,11.00
2022-11-05T06:31:06.592Z,10.97
2022-11-05T06:33:35.500Z,11.37
2022-11-05T06:36:06.452Z,11.57
2022-11-05T06:38:38.098Z,11.50
2022-11-05T06:41:10.289Z,11.33
2022-11-05T06:43:39.870Z,12.23
2022-11-05T06:46:09.393Z,12.20
2022-11-05T06:48:38.559Z,11.90
2022-11-05T06:51:08.812Z,12.17
2022-11-05T06:53:38.969Z,12.00
2022-11-05T06:56:09.083Z,11.63
2022-11-05T06:58:38.180Z,12.23
2022-11-05T07:01:09.462Z,11.83
2022-11-05T07:03:39.440Z,12.73
2022-11-05T07:06:08.994Z,12.33
2022-11-05T07:08:39.170Z,12.20
2022-11-05T07:11:08.232Z,12.23
2022-11-05T07:13:37.084Z,12.80
2022-11-05T07:16:06.462Z,12.63
2022-11-05T07:18:35.446Z,12.00
2022-11-05T07:21:04.713Z,11.93
2022-11-05T07:23:33.522Z,11.90
2022-11-05T07:26:03.849Z,12.17
2022-11-05T07:28:33.013Z,11.97
2022-11-05T07:31:03.548Z,11.50
2022-11-05T07:33:36.284Z,11.37
2022-11-05T07:36:06.373Z,11.13
2022-11-05T07:38:35.437Z,12.10
2022-11-05T07:41:06.048Z,12.30
2022-11-05T07:43:34.750Z,12.13
2022-11-05T07:46:03.556Z,12.40
2022-11-05T07:48:32.489Z,13.43
2022-11-05T07:51:01.571Z,12.97
2022-11-05T07:53:30.512Z,13.33
2022-11-05T07:55:59.934Z,13.53
2022-11-05T07:58:30.101Z,13.17
2022-11-05T08:00:59.265Z,13.17
2022-11-05T08:03:28.754Z,13.80
2022-11-05T08:05:57.707Z,13.30
2022-11-05T08:08:26.573Z,14.17
2022-11-05T08:10:55.461Z,13.43
2022-11-05T08:13:24.257Z,13.60
2022-11-05T08:15:56.933Z,12.90
2022-11-05T08:18:31.155Z,13.17
2022-11-05T08:21:01.443Z,13.23
2022-11-05T08:23:31.876Z,13.23
2022-11-05T08:26:03.788Z,12.77
2022-11-05T08:28:32.975Z,12.87
2022-11-05T08:31:04.535Z,13.43
2022-11-05T08:33:34.792Z,12.87
2022-11-05T08:36:05.341Z,12.80
2022-11-05T08:38:34.090Z,12.30
2022-11-05T08:41:02.997Z,12.87
2022-11-05T08:43:32.041Z,12.43
2022-11-05T08:46:01.538Z,14.57
2022-11-05T08:48:31.729Z,13.13
2022-11-05T08:51:02.288Z,12.97
2022-11-05T08:53:31.416Z,12.77
2022-11-05T08:56:00.715Z,12.87
2022-11-05T08:58:29.631Z,12.20
2022-11-05T09:01:04.473Z,12.00
2022-11-05T09:03:35.504Z,12.33
2022-11-05T09:06:04.764Z,11.83
2022-11-05T09:08:33.909Z,12.00
2022-11-05T09:11:02.793Z,12.50
2022-11-05T09:13:31.571Z,11.40
2022-11-05T09:16:01.400Z,11.67
2022-11-05T09:18:30.312Z,11.20
2022-11-05T09:21:00.872Z,10.93
2022-11-05T09:23:29.917Z,10.70
2022-11-05T09:25:58.953Z,10.53
2022-11-05T09:28:28.454Z,9.97
2022-11-05T09:30:57.657Z,10.33
2022-11-05T09:33:27.928Z,9.87
2022-11-05T09:36:02.228Z,10.60
2022-11-05T09:38:31.570Z,11.13
2022-11-05T09:41:02.632Z,10.40
2022-11-05T09:43:36.794Z,10.20
2022-11-05T09:46:12.769Z,9.40
2022-11-05T09:48:43.316Z,8.97
2022-11-05T09:51:20.736Z,9.63
2022-11-05T09:53:53.392Z,9.67
2022-11-05T09:56:25.780Z,9.13
2022-11-05T09:58:59.450Z,9.17
2022-11-05T10:01:32.216Z,9.30
2022-11-05T10:04:06.775Z,9.43
2022-11-05T10:06:42.583Z,9.67
2022-11-05T10:09:18.990Z,9.20
2022-11-05T10:11:52.710Z,9.53
2022-11-05T10:14:26.056Z,8.87
2022-11-05T10:17:01.265Z,8.60
2022-11-05T10:19:36.873Z,8.80
2022-11-05T10:22:12.173Z,8.77
2022-11-05T10:24:44.375Z,7.87
2022-11-05T10:27:17.528Z,8.73
2022-11-05T10:29:47.912Z,8.80
2022-11-05T10:32:26.597Z,8.50
2022-11-05T10:34:58.457Z,8.40
2022-11-05T10:37:29.845Z,8.13
2022-11-05T10:39:59.451Z,8.60
2022-11-05T10:42:42.449Z,9.20
2022-11-05T10:45:20.822Z,8.80
2022-11-05T10:48:03.554Z,7.67
2022-11-05T10:50:34.871Z,7.03
2022-11-05T10:53:13.740Z,6.70
2022-11-05T10:55:45.618Z,5.90
2022-11-05T10:58:22.496Z,5.93
2022-11-05T11:01:05.373Z,5.30
2022-11-05T11:03:40.022Z,5.00
2022-11-05T11:06:20.197Z,4.90
2022-11-05T11:08:52.260Z,4.73
2022-11-05T11:11:30.704Z,4.37
2022-11-05T11:14:06.234Z,4.10
2022-11-05T11:16:38.085Z,4.13
2022-11-05T11:19:25.653Z,4.43
2022-11-05T11:22:14.826Z,4.60
2022-11-05T11:24:48.881Z,4.77
2022-11-05T11:27:22.506Z,5.00
2022-11-05T11:29:56.677Z,5.40
2022-11-05T11:32:29.440Z,5.07
2022-11-05T11:34:58.831Z,5.30
2022-11-05T11:37:32.726Z,5.43
2022-11-05T11:40:05.894Z,5.97
2022-11-05T11:42:37.804Z,6.20
2022-11-05T11:45:16.178Z,6.20
2022-11-05T11:47:47.036Z,6.37
2022-11-05T11:50:39.444Z,5.23
2022-11-05T11:53:25.446Z,5.97
2022-11-05T11:56:18.866Z,6.03
2022-11-05T11:58:49.877Z,6.33
2022-11-05T12:01:49.190Z,6.77
2022-11-05T12:04:49.250Z,6.43
2022-11-05T12:07:28.557Z,5.83
2022-11-05T12:10:09.706Z,6.27
2022-11-05T12:12:53.187Z,5.40
2022-11-05T12:15:35.703Z,6.07
2022-11-05T12:18:06.561Z,5.83
2022-11-05T12:20:50.803Z,6.53
2022-11-05T12:23:40.697Z,6.70
2022-11-05T12:26:23.832Z,7.90
2022-11-05T12:29:21.396Z,7.70
2022-11-05T12:31:59.748Z,7.70
2022-11-05T12:34:44.035Z,7.97
2022-11-05T12:37:23.546Z,8.73
2022-11-05T12:40:16.171Z,9.10
2022-11-05T12:42:57.658Z,9.07
2022-11-05T12:45:41.339Z,8.33
2022-11-05T12:48:28.305Z,8.50
2022-11-05T12:51:04.764Z,7.53
2022-11-05T12:53:59.410Z,7.57
2022-11-05T12:56:34.205Z,7.50
2022-11-05T12:59:12.504Z,8.73
2022-11-05T13:01:47.278Z,8.80
2022-11-05T13:04:26.599Z,9.33
2022-11-05T13:06:58.078Z,8.97
2022-11-05T13:09:32.765Z,9.00
2022-11-05T13:12:05.597Z,9.30
2022-11-05T13:14:41.761Z,8.93
2022-11-05T13:17:16.170Z,9.80
2022-11-05T13:19:50.804Z,9.33
2022-11-05T13:22:38.465Z,9.60
2022-11-05T13:25:14.156Z,9.93
2022-11-05T13:27:51.368Z,11.80
2022-11-05T13:30:23.133Z,11.13
2022-11-05T13:32:58.993Z,12.00
2022-11-05T13:35:32.302Z,10.23
2022-11-05T13:38:28.033Z,9.40
2022-11-05T13:41:06.951Z,8.70
2022-11-05T13:43:52.608Z,8.83
2022-11-05T13:46:34.634Z,8.17
2022-11-05T13:49:26.711Z,8.13
2022-11-05T13:51:58.068Z,7.93
2022-11-05T13:54:45.805Z,8.43
2022-11-05T13:57:45.321Z,8.57
2022-11-05T14:00:20.388Z,8.53
2022-11-05T14:02:53.313Z,8.63
2022-11-05T14:05:29.598Z,8.90
2022-11-05T14:08:00.882Z,9.00
2022-11-05T14:10:36.515Z,9.10
2022-11-05T14:13:17.563Z,9.17
2022-11-05T14:16:03.841Z,9.47
2022-11-05T14:18:42.254Z,10.10
2022-11-05T14:21:42.385Z,9.13
2022-11-05T14:24:42.987Z,9.00
2022-11-05T14:27:43.494Z,9.27
2022-11-05T14:30:45.519Z,9.27
2022-11-05T14:33:18.204Z,9.53
2022-11-05T14:35:47.105Z,9.10
2022-11-05T14:38:23.157Z,9.37
2022-11-05T14:41:01.408Z,8.93
2022-11-05T14:43:36.113Z,10.10
2022-11-05T14:46:07.111Z,10.00
2022-11-05T14:48:40.636Z,9.23
2022-11-05T14:51:28.321Z,9.60
2022-11-05T14:54:05.841Z,9.53
2022-11-05T14:56:43.840Z,9.70
2022-11-05T14:59:36.049Z,9.70
2022-11-05T15:02:12.756Z,10.23
2022-11-05T15:04:45.311Z,9.43
2022-11-05T15:07:35.473Z,9.97
2022-11-05T15:10:11.647Z,10.27
2022-11-05T15:12:45.742Z,10.53
2022-11-05T15:15:22.447Z,10.60
2022-11-05T15:18:01.559Z,10.60
2022-11-05T15:20:40.142Z,9.97
2022-11-05T15:23:15.319Z,10.87
2022-11-05T15:25:53.395Z,10.60
2022-11-05T15:28:31.461Z,9.93
2022-11-05T15:31:02.865Z,10.43
2022-11-05T15:33:32.980Z,10.63
2022-11-05T15:36:12.720Z,10.10
2022-11-05T15:38:56.594Z,11.03
2022-11-05T15:41:34.513Z,10.57
2022-11-05T15:44:03.736Z,10.73
2022-11-05T15:46:32.660Z,10.50
2022-11-05T15:49:07.014Z,10.77
2022-11-05T15:51:36.534Z,10.80
2022-11-05T15:54:29.168Z,10.40
2022-11-05T15:56:58.767Z,11.10
2022-11-05T15:59:30.141Z,10.00
2022-11-05T16:02:06.196Z,10.87
2022-11-05T16:04:36.039Z,10.57
2022-11-05T16:07:11.196Z,11.23
2022-11-05T16:09:43.600Z,11.87
2022-11-05T16:12:23.987Z,13.23
2022-11-05T16:15:01.461Z,14.53
2022-11-05T16:17:33.530Z,14.83
2022-11-05T16:20:02.413Z,14.50
2022-11-05T16:22:53.890Z,13.63
2022-11-05T16:25:31.864Z,14.67
2022-11-05T16:28:02.502Z,13.63
2022-11-05T16:30:32.594Z,14.00
2022-11-05T16:33:07.435Z,13.97
2022-11-05T16:35:40.896Z,14.40
2022-11-05T16:38:13.052Z,13.80
2022-11-05T16:40:42.536Z,15.27
2022-11-05T16:43:21.473Z,14.53
2022-11-05T16:45:53.529Z,13.93
2022-11-05T16:48:22.608Z,14.83
2022-11-05T16:50:52.564Z,15.67
2022-11-05T16:53:21.370Z,15.43
2022-11-05T16:55:50.997Z,14.27
2022-11-05T16:58:23.925Z,14.40
2022-11-05T17:00:56.970Z,13.93
2022-11-05T17:03:26.144Z,12.33
2022-11-05T17:05:55.074Z,11.53
2022-11-05T17:08:23.785Z,11.23
2022-11-05T17:10:52.640Z,11.87
2022-11-05T17:13:22.922Z,13.20
2022-11-05T17:15:52.743Z,13.80
2022-11-05T17:18:22.114Z,13.27
2022-11-05T17:20:53.170Z,13.50
2022-11-05T17:23:23.923Z,13.50
2022-11-05T17:25:55.197Z,12.80
2022-11-05T17:28:26.472Z,13.10
2022-11-05T17:30:57.190Z,13.17
2022-11-05T17:33:26.083Z,12.13
2022-11-05T17:35:55.358Z,12.37
2022-11-05T17:38:26.654Z,12.63
2022-11-05T17:40:55.792Z,12.47
2022-11-05T17:43:26.014Z,13.00
2022-11-05T17:45:58.653Z,12.67
2022-11-05T17:48:30.964Z,13.97
2022-11-05T17:51:00.083Z,13.77
2022-11-05T17:53:29.269Z,13.83
2022-11-05T17:55:58.284Z,13.43
2022-11-05T17:58:29.426Z,12.90
2022-11-05T18:00:58.309Z,14.50
2022-11-05T18:03:27.163Z,14.53
2022-11-05T18:06:02.350Z,12.73
2022-11-05T18:08:31.705Z,12.13
2022-11-05T18:11:00.582Z,13.87
2022-11-05T18:13:30.837Z,12.93
2022-11-05T18:15:59.834Z,11.97
2022-11-05T18:18:28.792Z,12.30
2022-11-05T18:20:58.473Z,12.27
2022-11-05T18:23:27.750Z,11.90
2022-11-05T18:25:56.907Z,13.37
2022-11-05T18:28:25.931Z,13.33
2022-11-05T18:30:57.360Z,12.50
2022-11-05T18:33:26.272Z,13.53
2022-11-05T18:35:55.254Z,13.93
2022-11-05T18:38:24.445Z,13.40
2022-11-05T18:40:53.277Z,13.23
2022-11-05T18:43:22.079Z,13.50
2022-11-05T18:45:57.440Z,13.87
2022-11-05T18:48:26.644Z,13.47
2022-11-05T18:51:01.545Z,14.30
2022-11-05T18:53:31.154Z,15.10
2022-11-05T18:56:00.194Z,16.67
2022-11-05T18:58:29.038Z,14.93
2022-11-05T19:01:03.954Z,15.80
2022-11-05T19:03:35.511Z,15.97
2022-11-05T19:06:05.486Z,15.10
2022-11-05T19:08:35.274Z,15.23
2022-11-05T19:11:09.569Z,15.77
2022-11-05T19:13:38.530Z,16.37
2022-11-05T19:16:10.393Z,15.43
2022-11-05T19:18:39.591Z,18.50
2022-11-05T19:21:09.230Z,17.67
2022-11-05T19:23:39.410Z,17.73
2022-11-05T19:26:09.178Z,16.97
2022-11-05T19:28:38.349Z,16.07
2022-11-05T19:31:08.990Z,16.40
2022-11-05T19:33:38.179Z,16.20
2022-11-05T19:36:08.698Z,16.20
2022-11-05T19:38:38.394Z,16.30
2022-11-05T19:41:08.991Z,15.73
2022-11-05T19:43:39.880Z,16.07
2022-11-05T19:46:12.985Z,16.40
2022-11-05T19:48:42.598Z,16.40
2022-11-05T19:51:14.941Z,15.50
2022-11-05T19:53:44.409Z,16.90
2022-11-05T19:56:15.136Z,16.40
2022-11-05T19:58:44.632Z,17.73
2022-11-05T20:01:15.884Z,16.63
2022-11-05T20:03:45.081Z,17.10
2022-11-05T20:06:16.553Z,17.80
2022-11-05T20:09:19.995Z,19.57
2022-11-05T20:11:36.986Z,20.43
2022-11-05T20:14:06.697Z,20.97
2022-11-05T20:16:37.854Z,19.83
2022-11-05T20:19:08.442Z,19.70
2022-11-05T20:21:37.589Z,19.53
2022-11-05T20:24:06.815Z,19.53
2022-11-05T20:26:35.496Z,19.90
2022-11-05T20:29:04.589Z,19.23
2022-11-05T20:31:33.495Z,19.40
2022-11-05T20:34:03.692Z,20.30
2022-11-05T20:36:32.620Z,20.77
2022-11-05T20:39:02.787Z,19.93
2022-11-05T20:41:32.146Z,20.60
2022-11-05T20:44:00.972Z,18.67
2022-11-05T20:46:29.640Z,19.83
2022-11-05T20:48:58.338Z,20.10
2022-11-05T20:51:28.695Z,20.00
2022-11-05T20:53:58.735Z,20.03
2022-11-05T20:56:29.512Z,19.33
2022-11-05T20:58:59.566Z,19.90
2022-11-05T21:01:30.261Z,19.77
2022-11-05T21:03:59.969Z,20.43
2022-11-05T21:06:30.501Z,20.10
2022-11-05T21:08:59.389Z,20.77
2022-11-05T21:11:28.437Z,19.30
2022-11-05T21:13:57.620Z,18.23
2022-11-05T21:16:26.539Z,18.63
2022-11-05T21:18:55.386Z,19.07
2022-11-05T21:21:24.039Z,17.90
2022-11-05T21:23:54.359Z,17.90
2022-11-05T21:26:23.085Z,18.07
2022-11-05T21:28:51.940Z,17.87
2022-11-05T21:31:20.796Z,17.70
2022-11-05T21:33:54.820Z,17.47
2022-11-05T21:36:24.136Z,17.10
2022-11-05T21:38:54.468Z,16.97
2022-11-05T21:41:23.226Z,17.20
2022-11-05T21:43:52.001Z,16.93
2022-11-05T21:46:21.334Z,17.30
2022-11-05T21:48:50.418Z,17.50
2022-11-05T21:51:37.186Z,18.40
2022-11-05T21:54:24.783Z,19.57
2022-11-05T21:57:11.208Z,21.43
2022-11-05T21:59:49.160Z,22.37
2022-11-05T22:02:20.452Z,21.10
2022-11-05T22:04:52.038Z,20.80
2022-11-05T22:07:24.963Z,19.27
2022-11-05T22:09:57.274Z,20.30
2022-11-05T22:12:26.546Z,21.13
2022-11-05T22:14:55.831Z,20.33
2022-11-05T22:17:25.457Z,20.60
2022-11-05T22:19:54.892Z,20.67
2022-11-05T22:22:23.606Z,20.53
2022-11-05T22:24:52.536Z,19.67
2022-11-05T22:27:23.181Z,20.77
2022-11-05T22:29:52.090Z,19.30
2022-11-05T22:32:20.964Z,18.80
2022-11-05T22:34:49.790Z,18.07
2022-11-05T22:37:18.717Z,17.87
2022-11-05T22:39:47.575Z,17.57
2022-11-05T22:42:16.465Z,18.00
2022-11-05T22:44:46.543Z,18.13
2022-11-05T22:47:15.505Z,18.93
2022-11-05T22:49:45.218Z,18.83
2022-11-05T22:52:13.951Z,18.67
2022-11-05T22:54:42.961Z,17.03
2022-11-05T22:57:11.853Z,18.00
2022-11-05T22:59:40.781Z,25.00
2022-11-05T23:02:11.348Z,22.90
2022-11-05T23:04:40.801Z,22.00
2022-11-05T23:07:28.924Z,20.80
2022-11-05T23:10:15.081Z,20.03
2022-11-05T23:12:44.397Z,20.67
2022-11-05T23:15:34.353Z,19.57
2022-11-05T23:18:33.946Z,20.27
2022-11-05T23:21:23.075Z,20.10
2022-11-05T23:24:07.628Z,20.20
2022-11-05T23:26:52.740Z,19.83
2022-11-05T23:29:24.037Z,20.43
2022-11-05T23:32:11.422Z,19.70
2022-11-05T23:34:42.007Z,19.90
2022-11-05T23:37:28.677Z,21.10
2022-11-05T23:39:57.782Z,21.00
2022-11-05T23:42:44.485Z,20.83
2022-11-05T23:45:32.564Z,21.40
2022-11-05T23:48:19.718Z,20.93
2022-11-05T23:50:57.247Z,20.63
2022-11-05T23:53:27.130Z,20.30
2022-11-05T23:56:01.221Z,20.53
2022-11-05T23:58:29.997Z,19.37
